Time;durP1;ratioP1;P1;durP2;ratioP2;P2;SDS_P1;SDS_P2;PMS_P1;PMS_P2;Temp;Humidity;BMP_temperature;BMP_pressure;BME280_temperature;BME280_humidity;BME280_pressure;Samples;Min_cycle;Max_cycle;Signal;HPM_P1;HPM_P2
2022/04/11 00:02:13;;;;;;;16.20;4.70;;;;;;;11.02;57.33;98183.88;25066;1317;3058210;-62
2022/04/11 00:04:44;;;;;;;12.00;4.70;;;;;;;11.03;57.54;98184.31;25028;1317;3026458;-64
2022/04/11 00:07:16;;;;;;;10.40;4.10;;;;;;;11.06;57.59;98184.30;25055;1316;3028615;-64
2022/04/11 00:09:45;;;;;;;10.70;4.20;;;;;;;11.06;57.69;98193.35;24992;1317;3026540;-64
2022/04/11 00:12:35;;;;;;;16.00;5.20;;;;;;;10.96;57.95;98201.02;24946;1317;3053775;-61
2022/04/11 00:15:05;;;;;;;12.60;4.80;;;;;;;10.89;58.21;98205.06;25074;1317;3026373;-61
2022/04/11 00:17:36;;;;;;;13.40;4.80;;;;;;;10.88;58.18;98202.89;25055;1317;3026667;-62
2022/04/11 00:20:09;;;;;;;11.20;4.40;;;;;;;10.90;58.38;98200.12;25101;1317;3026952;-62
2022/04/11 00:22:38;;;;;;;11.90;4.90;;;;;;;10.88;58.56;98204.30;25091;1318;3026892;-61
2022/04/11 00:25:08;;;;;;;15.00;4.60;;;;;;;10.81;58.98;98202.57;25000;1318;3026347;-61
2022/04/11 00:27:57;;;;;;;16.90;5.00;;;;;;;10.81;59.12;98199.27;24970;1317;3053569;-62
2022/04/11 00:30:26;;;;;;;11.70;4.50;;;;;;;10.82;59.15;98197.23;25106;1317;3026509;-64
2022/04/11 00:33:15;;;;;;;11.60;4.40;;;;;;;10.72;59.72;98198.23;25106;1317;3052431;-61
2022/04/11 00:36:02;;;;;;;11.30;4.40;;;;;;;10.73;59.62;98203.95;25393;1317;3053023;-60
2022/04/11 00:38:32;;;;;;;13.80;4.80;;;;;;;10.64;60.14;98197.52;25446;1317;3026947;-59
2022/04/11 00:41:18;;;;;;;13.80;4.80;;;;;;;10.66;60.19;98199.75;25018;1317;3050235;-64
2022/04/11 00:43:48;;;;;;;15.00;5.60;;;;;;;10.80;60.10;98196.90;25025;1317;3054822;-62
2022/04/11 00:46:17;;;;;;;13.00;5.60;;;;;;;10.92;59.56;98197.36;25028;1318;3030582;-62
2022/04/11 00:48:47;;;;;;;13.60;4.80;;;;;;;10.74;60.37;98199.46;25005;1317;3027136;-62
2022/04/11 00:51:19;;;;;;;15.20;5.00;;;;;;;10.68;60.77;98204.88;25021;1318;3026908;-61
2022/04/11 00:53:51;;;;;;;13.90;4.70;;;;;;;10.66;61.08;98203.46;25064;1317;3029226;-63
2022/04/11 00:56:20;;;;;;;13.20;4.20;;;;;;;10.62;61.44;98203.14;25054;1316;3026423;-65
2022/04/11 00:58:50;;;;;;;17.00;4.40;;;;;;;10.63;61.54;98200.77;24998;1317;3026777;-65
2022/04/11 01:01:19;;;;;;;13.70;4.70;;;;;;;10.60;61.57;98195.71;25056;1317;3026198;-59
2022/04/11 01:03:51;;;;;;;12.00;4.60;;;;;;;10.58;61.92;98188.17;24951;1317;3069064;-62
2022/04/11 01:06:20;;;;;;;24.70;5.30;;;;;;;10.60;61.95;98194.11;25063;1317;3026613;-62
2022/04/11 01:08:59;;;;;;;9.50;4.60;;;;;;;10.58;62.36;98195.75;25021;1317;3055364;-64
2022/04/11 01:11:29;;;;;;;17.90;4.80;;;;;;;10.43;62.90;98199.53;25045;1317;3026346;-62
2022/04/11 01:14:16;;;;;;;15.10;4.80;;;;;;;10.38;63.12;98206.77;24954;1317;3058588;-61
2022/04/11 01:16:49;;;;;;;11.80;5.20;;;;;;;10.35;63.50;98205.77;24974;1318;3026973;-63
2022/04/11 01:19:19;;;;;;;13.30;4.40;;;;;;;10.25;63.95;98202.35;25079;1317;3026807;-61
2022/04/11 01:21:48;;;;;;;16.70;4.70;;;;;;;10.27;64.02;98201.63;24994;1317;3026904;-63
2022/04/11 01:24:36;;;;;;;19.90;4.80;;;;;;;10.26;63.95;98200.14;25056;1317;3071463;-63
2022/04/11 01:27:11;;;;;;;12.00;4.80;;;;;;;10.21;64.27;98207.02;24901;1320;3053391;-61
2022/04/11 01:29:40;;;;;;;16.20;5.50;;;;;;;10.22;64.54;98203.77;24997;1317;3026418;-63
2022/04/11 01:32:10;;;;;;;15.00;5.10;;;;;;;10.14;64.80;98210.03;24958;1317;3071103;-62
2022/04/11 01:34:39;;;;;;;15.60;5.10;;;;;;;10.05;65.20;98203.36;24973;1317;3026763;-63
2022/04/11 01:37:11;;;;;;;10.40;4.20;;;;;;;10.00;65.40;98208.16;25039;1317;3051187;-63
2022/04/11 01:39:40;;;;;;;16.60;6.40;;;;;;;9.99;65.42;98206.29;24981;1317;3026341;-60
2022/04/11 01:42:09;;;;;;;12.80;4.60;;;;;;;9.93;65.71;98208.88;24957;1317;3026672;-65
2022/04/11 01:44:38;;;;;;;17.80;5.30;;;;;;;9.95;65.68;98202.58;24989;1318;3026794;-64
2022/04/11 01:47:09;;;;;;;10.80;4.50;;;;;;;9.90;65.79;98214.45;24992;1317;3069975;-60
2022/04/11 01:49:40;;;;;;;12.40;4.40;;;;;;;9.88;65.55;98219.34;25052;1317;3026349;-62
2022/04/11 01:52:09;;;;;;;13.90;4.40;;;;;;;9.77;65.89;98223.17;24991;1317;3026639;-66
2022/04/11 01:54:39;;;;;;;11.40;4.80;;;;;;;9.73;66.08;98223.48;24970;1317;3026328;-64
2022/04/11 01:57:09;;;;;;;10.70;4.40;;;;;;;9.73;66.16;98226.14;24981;1317;3026446;-63
2022/04/11 01:59:39;;;;;;;12.30;4.80;;;;;;;9.64;66.66;98226.48;24921;1317;3026852;-64
2022/04/11 02:02:09;;;;;;;11.80;3.60;;;;;;;9.70;66.78;98226.03;24952;1318;3026209;-63
2022/04/11 02:04:38;;;;;;;9.40;3.40;;;;;;;10.15;65.61;98222.15;25026;1320;3027229;-64
2022/04/11 02:07:11;;;;;;;17.20;4.30;;;;;;;10.62;63.92;98222.02;24944;1317;3051699;-64
2022/04/11 02:09:40;;;;;;;13.10;4.00;;;;;;;10.64;63.81;98221.30;25067;1317;3026656;-66
2022/04/11 02:12:10;;;;;;;11.90;4.80;;;;;;;10.47;64.42;98231.94;25011;1317;3056003;-60
2022/04/11 02:14:39;;;;;;;19.70;5.30;;;;;;;10.28;65.69;98233.20;24966;1317;3026542;-64
2022/04/11 02:17:08;;;;;;;13.30;4.60;;;;;;;10.19;66.18;98231.88;24968;1317;3053116;-65
2022/04/11 02:19:37;;;;;;;17.80;5.50;;;;;;;10.09;67.03;98238.06;24974;1317;3026712;-68
2022/04/11 02:22:07;;;;;;;19.30;7.10;;;;;;;10.14;66.97;98228.06;25024;1317;3054515;-61
2022/04/11 02:24:55;;;;;;;23.30;7.10;;;;;;;9.97;67.84;98222.90;24925;1318;3055265;-64
2022/04/11 02:27:25;;;;;;;15.70;5.90;;;;;;;10.00;67.51;98222.25;25024;1317;3026577;-67
2022/04/11 02:29:54;;;;;;;14.80;6.00;;;;;;;9.84;68.36;98229.27;24960;1316;3054486;-63
2022/04/11 02:32:24;;;;;;;13.40;3.90;;;;;;;9.79;68.88;98226.38;25000;1317;3028627;-68
2022/04/11 02:34:53;;;;;;;13.90;4.00;;;;;;;10.29;67.34;98223.05;25024;1317;3026532;-63
2022/04/11 02:37:23;;;;;;;17.50;5.20;;;;;;;10.65;66.34;98221.80;25045;1317;3050818;-64
2022/04/11 02:39:52;;;;;;;14.40;5.70;;;;;;;10.57;66.20;98218.14;25038;1318;3027290;-62
2022/04/11 02:42:25;;;;;;;20.60;5.80;;;;;;;10.44;66.66;98219.55;25081;1317;3026902;-63
2022/04/11 02:44:58;;;;;;;18.00;5.90;;;;;;;10.27;67.37;98222.48;25027;1317;3026943;-64
2022/04/11 02:47:28;;;;;;;13.30;5.80;;;;;;;10.13;68.01;98219.49;25000;1317;3026854;-66
2022/04/11 02:49:57;;;;;;;21.50;7.60;;;;;;;10.10;68.20;98219.77;25000;1317;3026589;-64
2022/04/11 02:52:41;;;;;;;24.50;8.60;;;;;;;10.01;68.78;98220.32;24995;1317;3070943;-63
2022/04/11 02:55:12;;;;;;;25.80;7.80;;;;;;;9.93;69.14;98225.47;25007;1317;3026923;-61
2022/04/11 02:57:41;;;;;;;22.70;8.00;;;;;;;9.86;69.32;98230.69;25000;1317;3026175;-63
2022/04/11 03:00:12;;;;;;;25.70;7.10;;;;;;;9.80;69.70;98228.23;24989;1317;3026852;-60
2022/04/11 03:02:42;;;;;;;27.40;8.10;;;;;;;10.56;68.01;98230.89;25004;1317;3026720;-63
2022/04/11 03:05:12;;;;;;;24.70;6.20;;;;;;;10.92;66.17;98226.90;24920;1317;3026550;-63
2022/04/11 03:07:43;;;;;;;19.00;6.10;;;;;;;11.07;65.54;98223.23;24956;1317;3027810;-61
2022/04/11 03:10:14;;;;;;;21.00;5.90;;;;;;;11.11;64.87;98218.06;25089;1317;3026993;-62
2022/04/11 03:12:43;;;;;;;18.70;6.00;;;;;;;10.81;65.73;98222.38;24990;1318;3027823;-62
2022/04/11 03:15:17;;;;;;;17.30;5.70;;;;;;;10.68;65.94;98219.90;25061;1317;3029645;-63
2022/04/11 03:17:47;;;;;;;14.70;5.40;;;;;;;10.43;66.94;98225.95;25030;1317;3026490;-62
2022/04/11 03:20:17;;;;;;;17.30;6.30;;;;;;;10.35;67.30;98232.35;24983;1317;3026769;-66
2022/04/11 03:22:47;;;;;;;19.50;6.40;;;;;;;10.17;68.34;98234.64;24964;1318;3028731;-61
2022/04/11 03:25:18;;;;;;;15.50;6.00;;;;;;;10.00;69.04;98233.46;24973;1316;3026517;-64
2022/04/11 03:27:49;;;;;;;14.80;5.10;;;;;;;9.99;69.28;98235.47;25023;1318;3026844;-62
2022/04/11 03:30:20;;;;;;;16.20;3.70;;;;;;;10.70;67.91;98232.89;25080;1317;3026369;-64
2022/04/11 03:32:49;;;;;;;11.30;4.50;;;;;;;11.42;65.57;98229.81;25019;1317;3025883;-67
2022/04/11 03:35:19;;;;;;;17.20;5.20;;;;;;;11.61;64.28;98230.35;25005;1317;3055394;-62
2022/04/11 03:37:48;;;;;;;19.10;6.10;;;;;;;11.32;64.53;98226.45;25055;1317;3026484;-64
2022/04/11 03:40:26;;;;;;;19.70;5.40;;;;;;;11.07;65.02;98221.86;25051;1316;3052270;-65
2022/04/11 03:42:57;;;;;;;17.60;5.20;;;;;;;10.87;65.63;98226.06;24999;1317;3026454;-64
2022/04/11 03:45:27;;;;;;;14.40;4.80;;;;;;;10.65;66.59;98223.14;25013;1317;3026819;-65
2022/04/11 03:47:57;;;;;;;17.90;5.30;;;;;;;10.53;66.76;98232.21;25065;1317;3026864;-64
2022/04/11 03:50:28;;;;;;;19.00;7.00;;;;;;;10.60;65.98;98227.45;25056;1317;3026293;-65
2022/04/11 03:52:58;;;;;;;19.60;7.00;;;;;;;10.47;66.72;98233.39;25066;1317;3028922;-66
2022/04/11 03:55:31;;;;;;;21.80;7.70;;;;;;;10.38;67.29;98237.73;25006;1316;3026600;-64
2022/04/11 03:58:20;;;;;;;18.70;5.80;;;;;;;10.44;68.34;98237.75;24990;1317;3059099;-67
2022/04/11 04:00:50;;;;;;;19.90;6.60;;;;;;;11.01;67.59;98243.16;25061;1316;3026602;-66
2022/04/11 04:03:24;;;;;;;24.70;6.20;;;;;;;11.65;65.91;98247.20;25072;1317;3054953;-65
2022/04/11 04:05:58;;;;;;;20.80;6.00;;;;;;;11.53;65.86;98249.92;25037;1318;3052740;-63
2022/04/11 04:08:31;;;;;;;26.70;7.50;;;;;;;11.44;65.97;98251.97;24972;1318;3026909;-63
2022/04/11 04:11:11;;;;;;;23.80;6.30;;;;;;;11.24;66.37;98255.38;25011;1317;3050973;-62
2022/04/11 04:13:46;;;;;;;24.90;6.10;;;;;;;10.99;67.06;98262.29;25045;1316;3054667;-67
2022/04/11 04:16:37;;;;;;;14.00;5.90;;;;;;;10.91;67.55;98263.41;24959;1317;3052818;-65
2022/04/11 04:19:09;;;;;;;22.90;7.30;;;;;;;10.97;66.81;98273.83;25063;1318;3026238;-66
2022/04/11 04:21:38;;;;;;;24.60;7.00;;;;;;;10.96;66.56;98272.88;25067;1317;3026765;-61
2022/04/11 04:24:08;;;;;;;22.00;7.00;;;;;;;10.91;66.91;98263.66;25015;1318;3026979;-66
2022/04/11 04:26:38;;;;;;;25.50;6.70;;;;;;;10.78;67.42;98268.92;25002;1316;3029650;-61
2022/04/11 04:29:07;;;;;;;14.00;5.20;;;;;;;10.79;67.92;98267.54;24989;1317;3026638;-61
2022/04/11 04:31:40;;;;;;;17.00;5.60;;;;;;;11.52;66.42;98260.16;25057;1317;3027168;-63
2022/04/11 04:34:10;;;;;;;26.80;6.50;;;;;;;12.15;64.56;98259.80;25118;1317;3026823;-64
2022/04/11 04:36:41;;;;;;;16.80;6.80;;;;;;;12.20;63.94;98265.05;24943;1317;3026256;-62
2022/04/11 04:39:11;;;;;;;18.50;7.50;;;;;;;12.13;63.84;98267.41;25040;1317;3027310;-63
2022/04/11 04:41:43;;;;;;;30.40;8.30;;;;;;;11.92;64.40;98266.66;25045;1316;3026955;-69
2022/04/11 04:44:14;;;;;;;24.90;7.60;;;;;;;11.92;64.42;98271.25;25198;1317;3026828;-60
2022/04/11 04:46:47;;;;;;;26.40;8.30;;;;;;;11.94;64.32;98280.03;25386;1316;3051644;-61
2022/04/11 04:49:29;;;;;;;23.10;8.80;;;;;;;12.00;64.02;98275.89;25446;1316;3071412;-58
2022/04/11 04:51:58;;;;;;;22.60;7.90;;;;;;;12.02;63.86;98274.31;25243;1318;3026338;-66
2022/04/11 04:54:28;;;;;;;19.30;7.30;;;;;;;12.07;63.83;98278.96;24989;1320;3026485;-65
2022/04/11 04:56:58;;;;;;;21.10;8.70;;;;;;;12.10;63.84;98282.87;25019;1316;3027565;-67
2022/04/11 04:59:31;;;;;;;28.10;9.10;;;;;;;11.97;64.56;98287.01;25075;1316;3026822;-65
2022/04/11 05:02:04;;;;;;;26.80;9.00;;;;;;;12.03;64.02;98283.11;25041;1316;3051840;-64
2022/04/11 05:04:35;;;;;;;30.20;9.10;;;;;;;12.11;63.97;98276.83;25060;1317;3026290;-62
2022/04/11 05:07:04;;;;;;;25.00;9.10;;;;;;;11.99;64.80;98283.14;25020;1317;3026355;-63
2022/04/11 05:09:34;;;;;;;21.70;9.10;;;;;;;11.88;65.27;98282.59;25038;1317;3051395;-59
2022/04/11 05:12:04;;;;;;;21.60;9.30;;;;;;;11.85;65.38;98280.02;25022;1316;3026780;-66
2022/04/11 05:14:35;;;;;;;32.20;10.50;;;;;;;11.93;64.96;98274.67;25033;1316;3026541;-64
2022/04/11 05:17:10;;;;;;;33.60;10.30;;;;;;;12.01;64.73;98279.85;25003;1317;3069075;-66
2022/04/11 05:19:39;;;;;;;30.70;10.10;;;;;;;11.99;64.76;98287.18;25043;1316;3026524;-63
2022/04/11 05:22:09;;;;;;;22.30;10.00;;;;;;;11.99;64.67;98289.96;25031;1317;3026605;-65
2022/04/11 05:24:39;;;;;;;29.20;11.40;;;;;;;12.00;64.64;98278.30;25040;1316;3026838;-64
2022/04/11 05:27:09;;;;;;;29.30;11.30;;;;;;;12.12;64.28;98282.38;25044;1316;3026343;-61
2022/04/11 05:29:40;;;;;;;34.20;11.70;;;;;;;12.25;63.55;98284.98;25038;1316;3026883;-62
2022/04/11 05:32:09;;;;;;;40.30;13.10;;;;;;;12.40;63.13;98282.10;25031;1317;3026383;-63
2022/04/11 05:34:38;;;;;;;35.00;13.10;;;;;;;12.49;62.65;98288.91;25066;1316;3027001;-64
2022/04/11 05:37:08;;;;;;;33.50;13.50;;;;;;;12.44;62.48;98290.37;25026;1316;3026497;-60
2022/04/11 05:39:37;;;;;;;34.00;13.30;;;;;;;12.39;62.57;98289.41;25008;1317;3027433;-66
2022/04/11 05:42:07;;;;;;;38.70;13.90;;;;;;;12.30;62.72;98287.38;25076;1316;3027138;-61
2022/04/11 05:44:37;;;;;;;48.30;19.90;;;;;;;12.15;62.53;98284.58;25055;1316;3026887;-63
2022/04/11 05:47:07;;;;;;;55.20;22.40;;;;;;;12.01;62.95;98285.58;25000;1316;3026436;-63
2022/04/11 05:49:42;;;;;;;80.90;28.00;;;;;;;11.92;63.33;98283.91;25029;1317;3052244;-61
2022/04/11 05:52:15;;;;;;;94.20;30.80;;;;;;;11.90;63.45;98283.85;25001;1317;3026184;-64
2022/04/11 05:54:45;;;;;;;102.90;38.30;;;;;;;11.90;63.76;98281.39;25028;1316;3051135;-67
2022/04/11 05:57:15;;;;;;;89.20;34.30;;;;;;;11.82;63.96;98288.93;24983;1316;3027057;-65
2022/04/11 05:59:44;;;;;;;95.30;37.10;;;;;;;11.62;64.83;98282.13;25029;1317;3026040;-63
2022/04/11 06:02:15;;;;;;;85.50;37.70;;;;;;;11.67;65.11;98282.81;25052;1316;3027120;-64
2022/04/11 06:05:00;;;;;;;78.00;34.70;;;;;;;11.65;65.50;98283.30;25028;1316;3055640;-65
2022/04/11 06:07:32;;;;;;;75.30;35.90;;;;;;;11.48;66.57;98294.19;25074;1316;3029676;-64
2022/04/11 06:10:08;;;;;;;84.50;38.50;;;;;;;11.48;66.88;98295.63;24952;1317;3053108;-62
2022/04/11 06:12:39;;;;;;;51.40;27.10;;;;;;;11.42;67.47;98297.00;25057;1316;3026610;-67
2022/04/11 06:15:11;;;;;;;50.40;25.60;;;;;;;12.23;65.66;98297.96;24996;1316;3026480;-59
2022/04/11 06:17:41;;;;;;;55.10;25.10;;;;;;;12.60;64.06;98300.23;24968;1317;3026368;-67
2022/04/11 06:20:11;;;;;;;47.60;25.20;;;;;;;12.69;63.81;98298.73;25047;1316;3026758;-64
2022/04/11 06:22:43;;;;;;;50.80;25.90;;;;;;;12.67;63.77;98307.48;25039;1317;3050627;-62
2022/04/11 06:25:20;;;;;;;42.30;24.30;;;;;;;12.64;64.14;98303.69;25073;1317;3070086;-64
2022/04/11 06:28:09;;;;;;;44.60;23.30;;;;;;;12.60;64.12;98300.37;24992;1317;3049419;-63
2022/04/11 06:30:39;;;;;;;43.00;20.80;;;;;;;12.44;64.81;98310.55;25107;1316;3026329;-64
2022/04/11 06:33:08;;;;;;;38.00;21.00;;;;;;;12.19;65.93;98323.57;25016;1317;3026463;-66
2022/04/11 06:35:37;;;;;;;36.10;19.20;;;;;;;12.10;66.01;98322.77;25024;1317;3047313;-61
2022/04/11 06:38:06;;;;;;;37.20;18.50;;;;;;;11.76;67.38;98318.74;25044;1316;3027137;-63
2022/04/11 06:40:36;;;;;;;36.60;19.60;;;;;;;11.78;67.29;98316.82;25023;1316;3026639;-66
2022/04/11 06:43:06;;;;;;;36.50;18.90;;;;;;;11.92;66.97;98319.38;25058;1317;3029665;-65
2022/04/11 06:45:55;;;;;;;30.30;18.80;;;;;;;11.73;67.61;98310.01;25022;1316;3050010;-62
2022/04/11 06:48:25;;;;;;;40.00;20.80;;;;;;;11.92;66.89;98298.29;25119;1317;3026329;-64
2022/04/11 06:50:54;;;;;;;30.50;15.40;;;;;;;12.10;66.60;98301.17;25061;1317;3059435;-65
2022/04/11 06:53:23;;;;;;;32.10;15.80;;;;;;;12.73;64.96;98303.46;24995;1317;3026508;-64
2022/04/11 06:55:52;;;;;;;31.50;16.30;;;;;;;13.29;63.10;98313.59;25092;1317;3053029;-68
2022/04/11 06:58:21;;;;;;;35.00;16.50;;;;;;;13.33;62.72;98322.94;24998;1317;3026884;-63
2022/04/11 07:00:52;;;;;;;36.30;15.80;;;;;;;13.05;63.48;98337.55;25008;1316;3054636;-63
2022/04/11 07:03:21;;;;;;;31.00;15.60;;;;;;;12.63;64.71;98342.77;25043;1316;3026740;-66
2022/04/11 07:05:50;;;;;;;30.70;14.90;;;;;;;12.35;65.83;98351.53;25050;1316;3026873;-70
2022/04/11 07:08:20;;;;;;;34.60;16.00;;;;;;;12.02;66.96;98352.19;25018;1317;3053915;-67
2022/04/11 07:10:49;;;;;;;28.50;13.90;;;;;;;11.84;67.76;98349.97;25018;1318;3028288;-65
2022/04/11 07:13:19;;;;;;;30.50;13.50;;;;;;;11.60;68.74;98358.08;25028;1317;3026404;-65
2022/04/11 07:15:49;;;;;;;32.40;15.90;;;;;;;11.25;69.90;98355.45;25078;1316;3027525;-67
2022/04/11 07:18:25;;;;;;;26.70;11.70;;;;;;;11.06;70.82;98355.41;25029;1316;3026837;-64
2022/04/11 07:20:54;;;;;;;27.30;12.40;;;;;;;11.11;70.94;98352.05;25056;1318;3051825;-68
2022/04/11 07:23:25;;;;;;;36.60;14.00;;;;;;;11.55;69.31;98348.52;25033;1316;3026325;-65
2022/04/11 07:26:14;;;;;;;29.40;12.60;;;;;;;11.83;67.58;98351.98;24970;1317;3049359;-64
2022/04/11 07:28:44;;;;;;;30.90;12.30;;;;;;;11.36;68.88;98352.48;24998;1317;3026356;-65
2022/04/11 07:31:14;;;;;;;30.30;12.30;;;;;;;11.10;69.68;98349.54;25029;1317;3026764;-63
2022/04/11 07:33:44;;;;;;;24.50;11.90;;;;;;;10.81;70.59;98348.99;25047;1317;3027114;-68
2022/04/11 07:36:13;;;;;;;38.00;12.60;;;;;;;10.82;70.90;98338.46;24987;1316;3026385;-64
2022/04/11 07:38:42;;;;;;;28.10;11.60;;;;;;;10.98;70.30;98333.64;25080;1316;3054818;-65
2022/04/11 07:41:12;;;;;;;23.50;9.10;;;;;;;11.02;70.39;98331.90;25044;1318;3026154;-66
2022/04/11 07:43:41;;;;;;;26.10;9.10;;;;;;;11.55;68.85;98332.25;25059;1316;3026382;-68
2022/04/11 07:46:11;;;;;;;28.80;10.50;;;;;;;11.72;68.12;98336.11;25031;1317;3054770;-63
2022/04/11 07:48:40;;;;;;;22.90;10.10;;;;;;;11.59;68.02;98332.75;25038;1316;3026402;-67
2022/04/11 07:51:11;;;;;;;25.20;9.20;;;;;;;11.42;68.76;98342.58;25085;1318;3051687;-63
2022/04/11 07:53:40;;;;;;;23.40;10.10;;;;;;;11.32;68.91;98359.02;25032;1317;3027373;-65
2022/04/11 07:56:09;;;;;;;22.20;8.30;;;;;;;11.07;69.91;98367.68;25013;1317;3026821;-64
2022/04/11 07:58:38;;;;;;;22.70;9.30;;;;;;;10.98;70.12;98376.30;25064;1316;3055299;-63
2022/04/11 08:01:07;;;;;;;24.00;8.80;;;;;;;10.92;70.34;98381.66;25009;1318;3026319;-62
2022/04/11 08:03:36;;;;;;;26.20;8.00;;;;;;;10.82;71.04;98386.80;25082;1317;3050349;-65
2022/04/11 08:06:05;;;;;;;20.30;7.30;;;;;;;11.43;69.27;98387.58;25019;1317;3026835;-63
2022/04/11 08:08:35;;;;;;;24.20;8.50;;;;;;;11.62;68.04;98394.45;25028;1316;3071116;-67
2022/04/11 08:11:25;;;;;;;22.80;7.80;;;;;;;11.49;68.31;98387.23;24950;1318;3049216;-68
2022/04/11 08:13:54;;;;;;;19.50;8.40;;;;;;;11.56;67.94;98379.09;25049;1317;3026599;-65
2022/04/11 08:16:43;;;;;;;21.90;8.40;;;;;;;11.33;68.53;98388.85;25000;1316;3052799;-63
2022/04/11 08:19:12;;;;;;;20.90;8.10;;;;;;;11.28;68.68;98391.75;25054;1317;3027111;-64
2022/04/11 08:21:42;;;;;;;21.90;7.30;;;;;;;11.19;68.71;98385.57;25076;1317;3027511;-67
2022/04/11 08:24:17;;;;;;;23.20;8.10;;;;;;;10.82;69.72;98380.66;25022;1316;3055584;-66
2022/04/11 08:26:47;;;;;;;21.60;7.20;;;;;;;10.60;70.62;98376.80;25038;1316;3026234;-66
2022/04/11 08:29:17;;;;;;;15.90;5.50;;;;;;;10.74;70.53;98373.91;25019;1316;3026755;-60
2022/04/11 08:31:46;;;;;;;17.70;5.20;;;;;;;11.46;68.05;98379.63;25069;1317;3052156;-62
2022/04/11 08:34:16;;;;;;;21.80;6.50;;;;;;;11.89;65.98;98374.80;25003;1316;3026317;-69
2022/04/11 08:36:55;;;;;;;16.80;5.70;;;;;;;12.37;64.45;98363.85;25066;1316;3052350;-64
2022/04/11 08:39:24;;;;;;;18.50;5.50;;;;;;;12.18;64.58;98372.05;25044;1318;3029581;-65
2022/04/11 08:42:00;;;;;;;17.30;6.30;;;;;;;11.99;64.74;98373.45;25106;1315;3058687;-65
2022/04/11 08:44:29;;;;;;;18.80;6.10;;;;;;;12.13;64.62;98354.23;25142;1316;3026472;-66
2022/04/11 08:47:02;;;;;;;21.50;6.30;;;;;;;12.08;64.55;98355.05;25099;1316;3027658;-65
2022/04/11 08:49:32;;;;;;;16.10;5.80;;;;;;;12.13;64.52;98352.16;25051;1315;3058780;-65
2022/04/11 08:52:01;;;;;;;16.80;5.80;;;;;;;12.17;64.15;98349.70;24982;1317;3026476;-63
2022/04/11 08:54:33;;;;;;;22.40;5.80;;;;;;;11.91;64.82;98358.19;25027;1317;3053719;-67
2022/04/11 08:57:03;;;;;;;15.90;6.50;;;;;;;11.82;65.24;98358.06;25053;1317;3026445;-64
2022/04/11 08:59:32;;;;;;;13.10;5.60;;;;;;;11.82;65.12;98360.16;25028;1316;3026176;-66
2022/04/11 09:02:08;;;;;;;16.50;6.10;;;;;;;11.91;64.83;98355.70;25218;1315;3027540;-64
2022/04/11 09:04:51;;;;;;;20.30;6.00;;;;;;;12.04;64.39;98344.16;25132;1316;3052542;-66
2022/04/11 09:07:21;;;;;;;21.20;6.40;;;;;;;12.33;63.41;98343.79;25154;1315;3069248;-63
2022/04/11 09:09:51;;;;;;;18.60;5.50;;;;;;;12.32;63.43;98354.92;25128;1316;3026646;-63
2022/04/11 09:12:20;;;;;;;18.30;6.50;;;;;;;12.02;63.91;98358.46;25139;1317;3026922;-64
2022/04/11 09:14:54;;;;;;;17.40;6.50;;;;;;;11.95;64.50;98337.54;25160;1317;3026434;-65
2022/04/11 09:17:24;;;;;;;17.60;5.80;;;;;;;12.23;63.57;98339.38;25255;1317;3048550;-59
2022/04/11 09:20:26;;;;;;;11.00;4.80;;;;;;;12.24;63.09;98341.24;25499;1316;3026706;-64
2022/04/11 09:23:20;;;;;;;17.20;5.90;;;;;;;12.15;63.38;98342.29;25097;1317;3069241;-62
2022/04/11 09:25:50;;;;;;;16.50;5.50;;;;;;;12.18;63.30;98336.97;25090;1317;3053906;-67
2022/04/11 09:28:20;;;;;;;11.40;5.30;;;;;;;12.38;62.56;98349.17;25053;1317;3029684;-65
2022/04/11 09:30:50;;;;;;;16.00;5.30;;;;;;;12.54;62.18;98346.53;25022;1316;3071141;-65
2022/04/11 09:33:19;;;;;;;13.00;5.40;;;;;;;12.81;61.33;98349.00;25274;1318;3026893;-62
2022/04/11 09:35:51;;;;;;;13.00;5.00;;;;;;;12.58;61.55;98354.98;25178;1316;3026219;-67
2022/04/11 09:38:21;;;;;;;14.00;5.20;;;;;;;12.24;62.44;98346.82;25168;1315;3027123;-65
2022/04/11 09:40:55;;;;;;;10.90;5.20;;;;;;;12.40;62.33;98342.81;24977;1316;3026859;-61
2022/04/11 09:43:29;;;;;;;12.40;4.90;;;;;;;12.38;61.94;98342.15;25255;1317;3026583;-64
2022/04/11 09:45:59;;;;;;;9.70;4.70;;;;;;;12.56;61.61;98335.69;25179;1316;3055383;-63
2022/04/11 09:48:32;;;;;;;14.10;5.20;;;;;;;12.53;61.66;98332.38;25198;1316;3027087;-64
2022/04/11 09:51:08;;;;;;;15.00;4.80;;;;;;;12.50;61.62;98333.40;24952;1317;3027603;-64
2022/04/11 09:53:38;;;;;;;9.00;4.40;;;;;;;12.47;61.86;98332.03;25040;1317;3049699;-65
2022/04/11 09:56:10;;;;;;;11.80;5.00;;;;;;;12.63;61.44;98312.80;25063;1316;3027014;-63
2022/04/11 09:58:41;;;;;;;12.20;4.00;;;;;;;12.50;61.47;98329.17;25000;1317;3052210;-66
2022/04/11 10:01:11;;;;;;;9.60;4.50;;;;;;;12.57;61.31;98317.09;25009;1316;3026277;-67
2022/04/11 10:03:40;;;;;;;12.60;4.10;;;;;;;12.51;61.59;98321.91;25135;1317;3027078;-67
2022/04/11 10:06:11;;;;;;;12.60;4.80;;;;;;;12.58;61.45;98321.27;25061;1318;3054585;-65
2022/04/11 10:08:41;;;;;;;15.00;3.80;;;;;;;12.70;60.98;98330.71;25098;1316;3026280;-63
2022/04/11 10:11:10;;;;;;;16.20;3.70;;;;;;;12.46;61.51;98323.49;25086;1316;3026299;-65
2022/04/11 10:13:40;;;;;;;8.10;3.80;;;;;;;12.68;61.15;98318.64;25013;1316;3026276;-63
2022/04/11 10:16:17;;;;;;;9.10;3.90;;;;;;;12.69;60.77;98324.50;25147;1317;3052557;-63
2022/04/11 10:18:46;;;;;;;6.90;3.20;;;;;;;12.71;60.58;98319.42;25033;1316;3026391;-66
2022/04/11 10:21:30;;;;;;;9.20;3.80;;;;;;;13.00;59.93;98321.93;25089;1316;3052094;-68
2022/04/11 10:24:06;;;;;;;13.90;4.10;;;;;;;13.06;59.48;98325.52;25098;1317;3026403;-66
2022/04/11 10:26:44;;;;;;;12.30;3.80;;;;;;;13.20;58.85;98319.73;25086;1316;3068319;-66
2022/04/11 10:29:34;;;;;;;15.40;3.90;;;;;;;13.27;58.79;98320.80;25080;1316;3049504;-63
2022/04/11 10:32:25;;;;;;;14.60;3.40;;;;;;;13.51;58.12;98310.23;25049;1316;3055131;-65
2022/04/11 10:35:08;;;;;;;15.20;4.30;;;;;;;13.79;57.12;98311.04;25123;1317;3051809;-70
2022/04/11 10:37:40;;;;;;;9.00;4.50;;;;;;;13.55;57.54;98314.80;25028;1318;3057168;-70
2022/04/11 10:40:28;;;;;;;9.10;3.20;;;;;;;13.21;58.16;98308.02;25032;1316;3027054;-69
2022/04/11 10:43:14;;;;;;;15.40;3.80;;;;;;;13.15;58.46;98311.90;25105;1317;3058379;-66
2022/04/11 10:45:57;;;;;;;8.00;3.70;;;;;;;13.23;58.42;98306.93;25138;1316;3052014;-64
2022/04/11 10:49:05;;;;;;;8.60;3.90;;;;;;;13.42;57.57;98306.48;25069;1318;3070345;-63
2022/04/11 10:51:37;;;;;;;7.40;2.90;;;;;;;13.58;57.04;98305.53;25011;1318;3049231;-67
2022/04/11 10:54:19;;;;;;;7.50;3.80;;;;;;;13.69;56.75;98303.86;25083;1317;3026458;-69
2022/04/11 10:56:51;;;;;;;6.00;3.30;;;;;;;13.82;55.99;98294.91;24978;1318;3052478;-66
2022/04/11 10:59:27;;;;;;;10.60;3.70;;;;;;;13.97;55.89;98297.98;25057;1318;3057073;-66
2022/04/11 11:02:05;;;;;;;11.50;4.00;;;;;;;13.92;55.44;98300.20;25202;1316;3050223;-66
2022/04/11 11:04:41;;;;;;;9.60;3.50;;;;;;;14.09;55.07;98297.73;25097;1317;3053659;-64
2022/04/11 11:07:30;;;;;;;11.60;4.00;;;;;;;13.94;55.62;98299.99;25285;1316;3051054;-65
2022/04/11 11:10:01;;;;;;;9.90;3.70;;;;;;;13.92;55.55;98295.08;25117;1319;3069868;-67
2022/04/11 11:12:36;;;;;;;7.80;3.30;;;;;;;14.12;55.03;98297.21;25156;1317;3049705;-64
2022/04/11 11:15:24;;;;;;;11.70;4.30;;;;;;;14.02;55.04;98296.06;25023;1316;3029947;-63
2022/04/11 11:17:59;;;;;;;10.90;3.60;;;;;;;13.67;56.37;98308.30;25077;1318;3052553;-63
2022/04/11 11:20:52;;;;;;;7.60;3.60;;;;;;;13.65;56.54;98312.69;25057;1318;3058433;-63
2022/04/11 11:23:26;;;;;;;7.60;3.80;;;;;;;13.50;56.71;98309.85;25003;1316;3049445;-67
2022/04/11 11:26:16;;;;;;;11.30;4.40;;;;;;;13.51;56.82;98318.84;24982;1318;3053058;-66
2022/04/11 11:29:26;;;;;;;14.10;5.30;;;;;;;13.38;57.44;98319.45;25080;1317;3051458;-71
2022/04/11 11:32:03;;;;;;;12.50;4.60;;;;;;;13.31;57.45;98313.48;25082;1317;3068899;-64
2022/04/11 11:34:37;;;;;;;11.60;4.30;;;;;;;13.20;57.67;98319.34;25170;1316;3049580;-66
2022/04/11 11:37:09;;;;;;;9.50;3.60;;;;;;;13.28;57.29;98302.98;25243;1316;3026264;-70